Terminal Aerodrome Forecast
Issued by NWS Portland, OR

Home | Current Version | Previous Version | Text Only | Print | Product List | Glossary On
Versions: 1 2 3 4 5 6 7 8 9 10 11 12 13 14 15 16 17 18 19 20 21 22 23 24 25 26 27 28 29 30 31 32 33 34 35
000
FTUS46 KPQR 221741
TAFTTD
TAF
KTTD 221741Z 2218/2318 00000KT 4SM BR OVC006
     FM222000 00000KT 6SM BR OVC012
     FM222200 VRB03KT 6SM BR SCT015 BKN070
     FM230600 13004KT 5SM BR SCT010 OVC060
     FM231000 13004KT 4SM -RADZ BR OVC007=

USA.gov is the U.S. government's official web portal to all federal, state and local government web resources and services.